Etusivu
METAR-TAF:

METAR-TAF

Lentoasemat :

Savonlinna, Suomi

Savonlinnan lentoasema

Leveyspiiri: 61-57N, Pituuspiiri: 028-57E, korkeus merenpinnasta: 95 m

Tämänhetkinen sää

Tämä raportti tehtiin 10 minuuttia sitten, kello 02.20 UTC
Tuuli 3 kn etelästä/kaakosta
Lämpötila 3°C
Kosteus 100%
Ilmanpaine 997 hPa
Näkyvyys 10 km tai enemmän
Pilvistä 3200 ft:n korkeudessa

METAR: EFSA 250220Z AUTO 16003KT 9999 OVC032 03/03 Q0997

Aika: 05:30 (02:30 UTC)

Sääennuste

Tämä raportti tehtiin 11 tuntia ja 53 minuuttia sitten, kello 14.37 UTC
Ennuste voimassa 24. päivästä klo 15 UTC - 24. päivään klo 19 UTC
Tuuli 9 kn idästä/kaakosta
Näkyvyys 10 km tai enemmän
Hajonneita pilviä 3000 ft:n korkeudessa
Ajoittain
24. päivästä klo 16 UTC - 24. päivään klo 19 UTC
Hajonneita pilviä 1300 ft:n korkeudessa

TAF: EFSA 241437Z 2415/2419 12009KT 9999 BKN030 TEMPO 2416/2419 BKN013

Säähavainnot ja -ennusteet yli 4000 lentoasemalta (METAR- ja TAF-raportit).

Käytössä olevat sääasemat on merkitty karttaan keltaisilla ja punaisilla pisteillä.

Aseta hiiri pisteen päälle nähdäksesi sääaseman nimen.

Klikkaa sitten nähdäksesi säähavainnot ja -ennusteet.

Kartan vaihtaminen: klikkaa mustalla rastilla varustettuja vihreitä pisteitä, niin voit zoomata sisään; viivalla varustettua vihreää pistettä, niin voit zoomata ulos tai vihreitä nuolia, niin pääset viereisille kartoille.


METAR-TAF: